Time;durP1;ratioP1;P1;durP2;ratioP2;P2;SDS_P1;SDS_P2;PMS_P1;PMS_P2;Temp;Humidity;BMP_temperature;BMP_pressure;BME280_temperature;BME280_humidity;BME280_pressure;Samples;Min_cycle;Max_cycle;Signal;HPM_P1;HPM_P2
2024/04/06 00:01:36;;;;;;;;;;;;;;;;;;5093746;28;20375;-71
2024/04/06 00:04:02;;;;;;;;;;;;;;;;;;5093465;28;19915;-71
2024/04/06 00:06:28;;;;;;;;;;;;;;;;;;5093959;28;19908;-72
2024/04/06 00:08:54;;;;;;;;;;;;;;;;;;5075603;28;19908;-71
2024/04/06 00:11:20;;;;;;;;;;;;;;;;;;5093214;28;19920;-71
2024/04/06 00:13:47;;;;;;;;;;;;;;;;;;5093762;28;20362;-71
2024/04/06 00:16:13;;;;;;;;;;;;;;;;;;5093644;28;19954;-71
2024/04/06 00:18:39;;;;;;;;;;;;;;;;;;5093266;28;19908;-71
2024/04/06 00:21:05;;;;;;;;;;;;;;;;;;5093682;28;19908;-71
2024/04/06 00:23:31;;;;;;;;;;;;;;;;;;5075456;28;19908;-71
2024/04/06 00:25:57;;;;;;;;;;;;;;;;;;5093154;28;19943;-71
2024/04/06 00:28:24;;;;;;;;;;;;;;;;;;5093610;28;19909;-71
2024/04/06 00:30:50;;;;;;;;;;;;;;;;;;5093470;28;19916;-71
2024/04/06 00:33:16;;;;;;;;;;;;;;;;;;5074955;28;19961;-71
2024/04/06 00:35:42;;;;;;;;;;;;;;;;;;5093721;28;19912;-71
2024/04/06 00:38:08;;;;;;;;;;;;;;;;;;5095217;28;20253;-71
2024/04/06 00:40:34;;;;;;;;;;;;;;;;;;5097462;28;19930;-70
2024/04/06 00:43:00;;;;;;;;;;;;;;;;;;5097238;28;19943;-71
2024/04/06 00:45:26;;;;;;;;;;;;;;;;;;5097280;28;20352;-71
2024/04/06 00:47:52;;;;;;;;;;;;;;;;;;5078832;28;20381;-71
2024/04/06 00:50:18;;;;;;;;;;;;;;;;;;5078582;28;20492;-70
2024/04/06 00:52:44;;;;;;;;;;;;;;;;;;5096666;28;19916;-71
2024/04/06 00:55:10;;;;;;;;;;;;;;;;;;5078818;28;19998;-71
2024/04/06 00:57:36;;;;;;;;;;;;;;;;;;5096939;28;19909;-71
2024/04/06 01:00:01;;;;;;;;;;;;;;;;;;5078362;28;19914;-71
2024/04/06 01:02:28;;;;;;;;;;;;;;;;;;5096882;28;19961;-71
2024/04/06 01:04:54;;;;;;;;;;;;;;;;;;5096998;28;19979;-71
2024/04/06 01:07:20;;;;;;;;;;;;;;;;;;5096375;28;19912;-71
2024/04/06 01:09:46;;;;;;;;;;;;;;;;;;5096763;28;19909;-71
2024/04/06 01:12:12;;;;;;;;;;;;;;;;;;5096563;28;19986;-71
2024/04/06 01:14:38;;;;;;;;;;;;;;;;;;5096482;28;20379;-71
2024/04/06 01:17:03;;;;;;;;;;;;;;;;;;5096684;28;20378;-71
2024/04/06 01:19:29;;;;;;;;;;;;;;;;;;5096569;28;20417;-71
2024/04/06 01:21:55;;;;;;;;;;;;;;;;;;5096157;28;19931;-71
2024/04/06 01:24:21;;;;;;;;;;;;;;;;;;5096466;28;20224;-71
2024/04/06 01:26:47;;;;;;;;;;;;;;;;;;5078323;28;19987;-71
2024/04/06 01:29:13;;;;;;;;;;;;;;;;;;5095963;28;19915;-72
2024/04/06 01:31:39;;;;;;;;;;;;;;;;;;5096363;28;19916;-71
2024/04/06 01:34:05;;;;;;;;;;;;;;;;;;5096236;28;19947;-72
2024/04/06 01:36:31;;;;;;;;;;;;;;;;;;5095769;28;19923;-71
2024/04/06 01:38:57;;;;;;;;;;;;;;;;;;5077979;28;19909;-71
2024/04/06 01:41:23;;;;;;;;;;;;;;;;;;5077940;28;19959;-71
2024/04/06 01:43:49;;;;;;;;;;;;;;;;;;5077503;28;19908;-72
2024/04/06 01:46:15;;;;;;;;;;;;;;;;;;5095982;28;20013;-72
2024/04/06 01:48:41;;;;;;;;;;;;;;;;;;5095432;28;19915;-72
2024/04/06 01:51:07;;;;;;;;;;;;;;;;;;5095650;28;19920;-72
2024/04/06 01:53:34;;;;;;;;;;;;;;;;;;5095876;28;19909;-71
2024/04/06 01:56:00;;;;;;;;;;;;;;;;;;5077216;28;20256;-71
2024/04/06 01:58:26;;;;;;;;;;;;;;;;;;5095729;28;19929;-71
2024/04/06 02:00:52;;;;;;;;;;;;;;;;;;5095839;28;19958;-71
2024/04/06 02:03:18;;;;;;;;;;;;;;;;;;5095424;28;19908;-71
2024/04/06 02:05:44;;;;;;;;;;;;;;;;;;5095588;28;20142;-71
2024/04/06 02:08:10;;;;;;;;;;;;;;;;;;5095600;28;19994;-71
2024/04/06 02:10:36;;;;;;;;;;;;;;;;;;5076906;28;20383;-71
2024/04/06 02:13:02;;;;;;;;;;;;;;;;;;5095817;28;19912;-71
2024/04/06 02:15:28;;;;;;;;;;;;;;;;;;5095380;28;20268;-71
2024/04/06 02:17:54;;;;;;;;;;;;;;;;;;5095246;28;20349;-71
2024/04/06 02:20:20;;;;;;;;;;;;;;;;;;5095260;28;19951;-71
2024/04/06 02:22:46;;;;;;;;;;;;;;;;;;5077040;28;19908;-71
2024/04/06 02:25:11;;;;;;;;;;;;;;;;;;5094765;28;19920;-71
2024/04/06 02:27:37;;;;;;;;;;;;;;;;;;5076978;28;20394;-71
2024/04/06 02:30:06;;;;;;;;;;;;;;;;;;5095454;28;20352;-71
2024/04/06 02:32:32;;;;;;;;;;;;;;;;;;5094554;28;19916;-71
2024/04/06 02:34:58;;;;;;;;;;;;;;;;;;5095032;28;20395;-71
2024/04/06 02:37:23;;;;;;;;;;;;;;;;;;5095247;28;20363;-72
2024/04/06 02:39:49;;;;;;;;;;;;;;;;;;5076411;28;20383;-71
2024/04/06 02:42:15;;;;;;;;;;;;;;;;;;5094965;28;20389;-72
2024/04/06 02:44:41;;;;;;;;;;;;;;;;;;5094883;28;20355;-71
2024/04/06 02:47:07;;;;;;;;;;;;;;;;;;5076162;28;19908;-71
2024/04/06 02:49:33;;;;;;;;;;;;;;;;;;5076618;28;20415;-71
2024/04/06 02:51:59;;;;;;;;;;;;;;;;;;5094125;28;19920;-71
2024/04/06 02:54:25;;;;;;;;;;;;;;;;;;5076520;28;20436;-72
2024/04/06 02:56:51;;;;;;;;;;;;;;;;;;5094661;28;19953;-71
2024/04/06 02:59:17;;;;;;;;;;;;;;;;;;5094287;28;19912;-71
2024/04/06 03:01:43;;;;;;;;;;;;;;;;;;5094029;28;19953;-72
2024/04/06 03:04:09;;;;;;;;;;;;;;;;;;5094492;28;19915;-72
2024/04/06 03:06:35;;;;;;;;;;;;;;;;;;5094043;28;19916;-71
2024/04/06 03:09:01;;;;;;;;;;;;;;;;;;5094345;28;19908;-71
2024/04/06 03:11:27;;;;;;;;;;;;;;;;;;5076129;28;20024;-71
2024/04/06 03:13:53;;;;;;;;;;;;;;;;;;5093880;28;19908;-72
2024/04/06 03:16:20;;;;;;;;;;;;;;;;;;5094293;28;19908;-72
2024/04/06 03:18:46;;;;;;;;;;;;;;;;;;5094731;28;19908;-71
2024/04/06 03:21:12;;;;;;;;;;;;;;;;;;5093833;28;19915;-71
2024/04/06 03:23:38;;;;;;;;;;;;;;;;;;5094142;28;19908;-71
2024/04/06 03:26:04;;;;;;;;;;;;;;;;;;5094138;28;19908;-72
2024/04/06 03:28:30;;;;;;;;;;;;;;;;;;5093626;28;19912;-71
2024/04/06 03:30:56;;;;;;;;;;;;;;;;;;5075850;28;20371;-71
2024/04/06 03:33:22;;;;;;;;;;;;;;;;;;5094355;28;19908;-71
2024/04/06 03:35:48;;;;;;;;;;;;;;;;;;5093615;28;19961;-71
2024/04/06 03:38:14;;;;;;;;;;;;;;;;;;5094008;28;19915;-72
2024/04/06 03:40:40;;;;;;;;;;;;;;;;;;5094095;28;19912;-71
2024/04/06 03:43:06;;;;;;;;;;;;;;;;;;5075414;28;19936;-71
2024/04/06 03:45:35;;;;;;;;;;;;;;;;;;5093978;28;19915;-71
2024/04/06 03:48:01;;;;;;;;;;;;;;;;;;5075694;28;19951;-71
2024/04/06 03:50:27;;;;;;;;;;;;;;;;;;5093767;28;19912;-71
2024/04/06 03:52:54;;;;;;;;;;;;;;;;;;5093841;28;20329;-71
2024/04/06 03:55:20;;;;;;;;;;;;;;;;;;5093612;28;19916;-70
2024/04/06 03:57:47;;;;;;;;;;;;;;;;;;5093761;28;19908;-71
2024/04/06 04:00:15;;;;;;;;;;;;;;;;;;5093703;28;19908;-72
2024/04/06 04:02:41;;;;;;;;;;;;;;;;;;5093353;28;19908;-71
2024/04/06 04:05:08;;;;;;;;;;;;;;;;;;5075618;28;20019;-71
2024/04/06 04:07:35;;;;;;;;;;;;;;;;;;5093698;28;19999;-71
2024/04/06 04:10:01;;;;;;;;;;;;;;;;;;5093431;28;19997;-70
2024/04/06 04:12:27;;;;;;;;;;;;;;;;;;5095048;28;20420;-71
2024/04/06 04:14:53;;;;;;;;;;;;;;;;;;5097768;28;19908;-71
2024/04/06 04:17:19;;;;;;;;;;;;;;;;;;5097430;28;19912;-71
2024/04/06 04:19:45;;;;;;;;;;;;;;;;;;5097659;28;19908;-71
2024/04/06 04:22:11;;;;;;;;;;;;;;;;;;5097582;28;19908;-71
2024/04/06 04:24:37;;;;;;;;;;;;;;;;;;5097139;28;20003;-71
2024/04/06 04:27:03;;;;;;;;;;;;;;;;;;5079290;28;19915;-71
2024/04/06 04:29:29;;;;;;;;;;;;;;;;;;5079288;28;19908;-72
2024/04/06 04:31:55;;;;;;;;;;;;;;;;;;5097060;28;19965;-72
2024/04/06 04:34:21;;;;;;;;;;;;;;;;;;5097332;28;19962;-71
2024/04/06 04:36:47;;;;;;;;;;;;;;;;;;5097289;28;19908;-71
2024/04/06 04:39:13;;;;;;;;;;;;;;;;;;5096926;28;19998;-71
2024/04/06 04:41:39;;;;;;;;;;;;;;;;;;5097286;28;19916;-71
2024/04/06 04:44:05;;;;;;;;;;;;;;;;;;5097143;28;19908;-71
2024/04/06 04:46:31;;;;;;;;;;;;;;;;;;5096808;28;19908;-70
2024/04/06 04:48:59;;;;;;;;;;;;;;;;;;5097177;28;19915;-70
2024/04/06 04:51:25;;;;;;;;;;;;;;;;;;5096433;28;19927;-70
2024/04/06 04:53:51;;;;;;;;;;;;;;;;;;5097105;28;19908;-71
2024/04/06 04:56:17;;;;;;;;;;;;;;;;;;5096995;28;19912;-71
2024/04/06 04:58:43;;;;;;;;;;;;;;;;;;5096972;28;19994;-70
2024/04/06 05:01:09;;;;;;;;;;;;;;;;;;5096950;28;19966;-71
2024/04/06 05:03:35;;;;;;;;;;;;;;;;;;5096931;28;19912;-71
2024/04/06 05:06:01;;;;;;;;;;;;;;;;;;5096396;28;19908;-70
2024/04/06 05:08:27;;;;;;;;;;;;;;;;;;5096753;28;19950;-70
2024/04/06 05:10:53;;;;;;;;;;;;;;;;;;5096616;28;19912;-71
2024/04/06 05:13:19;;;;;;;;;;;;;;;;;;5096397;28;20007;-71
2024/04/06 05:15:44;;;;;;;;;;;;;;;;;;5096893;28;19915;-71
2024/04/06 05:18:10;;;;;;;;;;;;;;;;;;5078463;28;19912;-71
2024/04/06 05:20:36;;;;;;;;;;;;;;;;;;5077903;28;19908;-71
2024/04/06 05:23:02;;;;;;;;;;;;;;;;;;5096088;28;19947;-71
2024/04/06 05:25:28;;;;;;;;;;;;;;;;;;5096424;28;19908;-71
2024/04/06 05:27:54;;;;;;;;;;;;;;;;;;5095972;28;19993;-71
2024/04/06 05:30:20;;;;;;;;;;;;;;;;;;5078226;28;19912;-71
2024/04/06 05:32:46;;;;;;;;;;;;;;;;;;5096435;28;19923;-71
2024/04/06 05:35:12;;;;;;;;;;;;;;;;;;5095988;28;20006;-71
2024/04/06 05:37:38;;;;;;;;;;;;;;;;;;5096547;28;19912;-72
2024/04/06 05:40:04;;;;;;;;;;;;;;;;;;5096170;28;19943;-71
2024/04/06 05:42:30;;;;;;;;;;;;;;;;;;5095737;28;19951;-71
2024/04/06 05:44:56;;;;;;;;;;;;;;;;;;5096032;28;20429;-71
2024/04/06 05:47:22;;;;;;;;;;;;;;;;;;5096128;28;20421;-71
2024/04/06 05:49:48;;;;;;;;;;;;;;;;;;5095543;28;20360;-71
2024/04/06 05:52:14;;;;;;;;;;;;;;;;;;5095712;28;20412;-71
2024/04/06 05:54:40;;;;;;;;;;;;;;;;;;5095977;28;19919;-71
2024/04/06 05:57:06;;;;;;;;;;;;;;;;;;5077619;28;19912;-71
2024/04/06 05:59:32;;;;;;;;;;;;;;;;;;5095742;28;19915;-71
2024/04/06 06:01:58;;;;;;;;;;;;;;;;;;5077152;28;20314;-71
2024/04/06 06:04:24;;;;;;;;;;;;;;;;;;5095651;28;20011;-71
2024/04/06 06:06:50;;;;;;;;;;;;;;;;;;5095648;28;19915;-71
2024/04/06 06:09:16;;;;;;;;;;;;;;;;;;5095177;28;20280;-71
2024/04/06 06:11:45;;;;;;;;;;;;;;;;;;5077337;28;19961;-71
2024/04/06 06:14:11;;;;;;;;;;;;;;;;;;5095401;28;20002;-71
2024/04/06 06:16:36;;;;;;;;;;;;;;;;;;5094993;28;19944;-71
2024/04/06 06:19:02;;;;;;;;;;;;;;;;;;5095371;28;19937;-71
2024/04/06 06:21:28;;;;;;;;;;;;;;;;;;5095371;28;19908;-71
2024/04/06 06:23:54;;;;;;;;;;;;;;;;;;5076697;28;19908;-71
2024/04/06 06:26:20;;;;;;;;;;;;;;;;;;5095253;28;19912;-72
2024/04/06 06:28:47;;;;;;;;;;;;;;;;;;5095248;28;19954;-72
2024/04/06 06:31:12;;;;;;;;;;;;;;;;;;5094721;28;19916;-72
2024/04/06 06:33:38;;;;;;;;;;;;;;;;;;5076920;28;19915;-71
2024/04/06 06:36:04;;;;;;;;;;;;;;;;;;5094155;28;19912;-72
2024/04/06 06:38:30;;;;;;;;;;;;;;;;;;5094704;28;19913;-71
2024/04/06 06:40:56;;;;;;;;;;;;;;;;;;5094958;28;20327;-72
2024/04/06 06:43:22;;;;;;;;;;;;;;;;;;5094860;28;19961;-71
2024/04/06 06:45:48;;;;;;;;;;;;;;;;;;5076320;28;19908;-71
2024/04/06 06:48:14;;;;;;;;;;;;;;;;;;5094780;28;19915;-71
2024/04/06 06:50:40;;;;;;;;;;;;;;;;;;5094596;28;19924;-71
2024/04/06 06:53:06;;;;;;;;;;;;;;;;;;5094409;28;20292;-71
2024/04/06 06:55:32;;;;;;;;;;;;;;;;;;5076425;28;19908;-71
2024/04/06 06:57:58;;;;;;;;;;;;;;;;;;5094775;28;20300;-72
2024/04/06 07:00:24;;;;;;;;;;;;;;;;;;5094572;28;19915;-72
2024/04/06 07:02:50;;;;;;;;;;;;;;;;;;5094523;28;19912;-71
2024/04/06 07:05:16;;;;;;;;;;;;;;;;;;5094110;28;19923;-71
2024/04/06 07:07:42;;;;;;;;;;;;;;;;;;5094479;28;19912;-72
2024/04/06 07:10:08;;;;;;;;;;;;;;;;;;5076528;28;19931;-71
2024/04/06 07:12:34;;;;;;;;;;;;;;;;;;5094058;28;19969;-71
2024/04/06 07:15:00;;;;;;;;;;;;;;;;;;5094290;28;19919;-71
2024/04/06 07:17:26;;;;;;;;;;;;;;;;;;5094285;28;19908;-71
2024/04/06 07:19:52;;;;;;;;;;;;;;;;;;5093839;28;19956;-71
2024/04/06 07:22:18;;;;;;;;;;;;;;;;;;5075994;28;19915;-71
2024/04/06 07:24:43;;;;;;;;;;;;;;;;;;5094178;28;19908;-71
2024/04/06 07:27:10;;;;;;;;;;;;;;;;;;5093681;28;20298;-71
2024/04/06 07:29:36;;;;;;;;;;;;;;;;;;5094066;28;19919;-72
2024/04/06 07:32:01;;;;;;;;;;;;;;;;;;5094139;28;19916;-72
2024/04/06 07:34:27;;;;;;;;;;;;;;;;;;5093712;28;19947;-72
2024/04/06 07:36:53;;;;;;;;;;;;;;;;;;5094320;28;20021;-72
2024/04/06 07:39:19;;;;;;;;;;;;;;;;;;5093912;28;19908;-72
2024/04/06 07:41:45;;;;;;;;;;;;;;;;;;5075196;28;19915;-72
2024/04/06 07:44:11;;;;;;;;;;;;;;;;;;5093813;28;19909;-72
2024/04/06 07:46:37;;;;;;;;;;;;;;;;;;5093941;28;19909;-72
2024/04/06 07:49:03;;;;;;;;;;;;;;;;;;5093378;28;19930;-72
2024/04/06 07:51:29;;;;;;;;;;;;;;;;;;5093536;28;19930;-72
2024/04/06 07:53:55;;;;;;;;;;;;;;;;;;5093779;28;19911;-72
2024/04/06 07:56:21;;;;;;;;;;;;;;;;;;5093381;28;19908;-72
2024/04/06 07:58:47;;;;;;;;;;;;;;;;;;5075989;28;19908;-72
2024/04/06 08:02:31;;;;;;;;;;;;;;;;;;5091282;27;19974;-70
2024/04/06 08:04:57;;;;;;;;;;;;;;;;;;5091429;28;20428;-72
2024/04/06 08:12:22;;;;;;;;;;;;;;;;;;5111620;27;19912;-73
2024/04/06 08:17:06;;;;;;;;;;;;;;;;;;5111346;27;19916;-72
2024/04/06 08:19:32;;;;;;;;;;;;;;;;;;5111875;28;20002;-72
2024/04/06 08:21:58;;;;;;;;;;;;;;;;;;5111615;28;19908;-71
2024/04/06 08:26:14;;;;;;;;;;;;;;;;;;5112140;27;19916;-73
2024/04/06 08:28:52;;;;;;;;;;;;;;;;;;5091948;27;19924;-73
2024/04/06 08:33:09;;;;;;;;;;;;;;;;;;5091488;28;19917;-71
2024/04/06 08:35:38;;;;;;;;;;;;;;;;;;5091300;28;19999;-71
2024/04/06 08:38:04;;;;;;;;;;;;;;;;;;5090906;28;19942;-71
2024/04/06 08:40:30;;;;;;;;;;;;;;;;;;5091281;28;19912;-72
2024/04/06 08:42:56;;;;;;;;;;;;;;;;;;5091076;28;19957;-71
2024/04/06 08:46:17;;;;;;;;;;;;;;;;;;5091919;27;20268;-70
2024/04/06 08:50:45;;;;;;;;;;;;;;;;;;5111488;27;19920;-72
2024/04/06 08:54:33;;;;;;;;;;;;;;;;;;5111592;27;19912;-71
2024/04/06 08:56:59;;;;;;;;;;;;;;;;;;5111683;28;19938;-71
2024/04/06 09:00:43;;;;;;;;;;;;;;;;;;5091805;28;19913;-70
2024/04/06 09:03:09;;;;;;;;;;;;;;;;;;5091204;28;20011;-70
2024/04/06 09:05:35;;;;;;;;;;;;;;;;;;5090835;28;19909;-71
2024/04/06 09:08:49;;;;;;;;;;;;;;;;;;5091609;27;20300;-71
2024/04/06 09:12:59;;;;;;;;;;;;;;;;;;5091232;28;20368;-71
2024/04/06 09:15:25;;;;;;;;;;;;;;;;;;5091255;28;20003;-72
2024/04/06 09:18:09;;;;;;;;;;;;;;;;;;5091550;27;20265;-72
2024/04/06 09:21:27;;;;;;;;;;;;;;;;;;5111746;27;19916;-71
2024/04/06 09:25:17;;;;;;;;;;;;;;;;;;5092046;27;19912;-71
2024/04/06 09:27:44;;;;;;;;;;;;;;;;;;5090799;28;19913;-71
2024/04/06 09:30:11;;;;;;;;;;;;;;;;;;5091198;28;19935;-71
2024/04/06 09:32:37;;;;;;;;;;;;;;;;;;5091030;28;19966;-71
2024/04/06 09:35:02;;;;;;;;;;;;;;;;;;5090921;28;19912;-71
2024/04/06 09:37:28;;;;;;;;;;;;;;;;;;5090994;28;20022;-72
2024/04/06 09:39:54;;;;;;;;;;;;;;;;;;5090544;28;19912;-71
2024/04/06 09:42:49;;;;;;;;;;;;;;;;;;5091265;27;19917;-72
2024/04/06 09:45:15;;;;;;;;;;;;;;;;;;5091105;28;20011;-72
2024/04/06 09:48:28;;;;;;;;;;;;;;;;;;5090919;28;19913;-71
2024/04/06 09:50:54;;;;;;;;;;;;;;;;;;5091341;28;19995;-72
2024/04/06 09:53:21;;;;;;;;;;;;;;;;;;5091214;28;19908;-72
2024/04/06 09:55:47;;;;;;;;;;;;;;;;;;5090860;28;19919;-71
2024/04/06 09:58:15;;;;;;;;;;;;;;;;;;5091070;28;19908;-71
2024/04/06 10:04:38;;;;;;;;;;;;;;;;;;5091980;27;19919;-71
2024/04/06 10:07:04;;;;;;;;;;;;;;;;;;5089948;28;19912;-71
2024/04/06 10:09:30;;;;;;;;;;;;;;;;;;5090872;28;20007;-71
2024/04/06 10:11:56;;;;;;;;;;;;;;;;;;5091228;28;19962;-71
2024/04/06 10:14:23;;;;;;;;;;;;;;;;;;5091135;28;20358;-71
2024/04/06 10:16:49;;;;;;;;;;;;;;;;;;5089350;28;19909;-71
2024/04/06 10:19:17;;;;;;;;;;;;;;;;;;5091334;28;19970;-72
2024/04/06 10:21:46;;;;;;;;;;;;;;;;;;5089646;28;19908;-71
2024/04/06 10:24:12;;;;;;;;;;;;;;;;;;5090471;28;19928;-71
2024/04/06 10:26:38;;;;;;;;;;;;;;;;;;5091075;28;19953;-72
2024/04/06 10:29:04;;;;;;;;;;;;;;;;;;5090372;28;19995;-71
2024/04/06 10:31:30;;;;;;;;;;;;;;;;;;5089480;28;19908;-71
2024/04/06 10:33:57;;;;;;;;;;;;;;;;;;5090724;28;19919;-71
2024/04/06 10:36:23;;;;;;;;;;;;;;;;;;5090262;28;19966;-71
2024/04/06 10:38:49;;;;;;;;;;;;;;;;;;5089412;28;19913;-72
2024/04/06 10:41:15;;;;;;;;;;;;;;;;;;5089321;28;19908;-71
2024/04/06 10:43:42;;;;;;;;;;;;;;;;;;5090081;28;19959;-72
2024/04/06 10:46:07;;;;;;;;;;;;;;;;;;5089228;28;20349;-71
2024/04/06 10:48:33;;;;;;;;;;;;;;;;;;5090475;28;19959;-71
2024/04/06 10:50:59;;;;;;;;;;;;;;;;;;5090178;28;19908;-71
2024/04/06 10:53:25;;;;;;;;;;;;;;;;;;5090290;28;19916;-72
2024/04/06 10:55:51;;;;;;;;;;;;;;;;;;5090329;28;19908;-72
2024/04/06 11:00:41;;;;;;;;;;;;;;;;;;5091294;27;19913;-71
2024/04/06 11:03:07;;;;;;;;;;;;;;;;;;5091282;28;20431;-71
2024/04/06 11:05:59;;;;;;;;;;;;;;;;;;5091018;28;19923;-71
2024/04/06 11:08:25;;;;;;;;;;;;;;;;;;5091248;28;20002;-71
2024/04/06 11:10:51;;;;;;;;;;;;;;;;;;5091297;28;19908;-71
2024/04/06 11:15:40;;;;;;;;;;;;;;;;;;5091398;27;19916;-71
2024/04/06 11:18:06;;;;;;;;;;;;;;;;;;5090861;28;19999;-71
2024/04/06 11:21:46;;;;;;;;;;;;;;;;;;5111715;27;19912;-71
2024/04/06 11:24:12;;;;;;;;;;;;;;;;;;5110298;28;19918;-71
2024/04/06 11:26:37;;;;;;;;;;;;;;;;;;5111354;28;19911;-72
2024/04/06 11:29:03;;;;;;;;;;;;;;;;;;5111373;28;19919;-71
2024/04/06 11:31:29;;;;;;;;;;;;;;;;;;5111815;28;19916;-71
2024/04/06 11:33:57;;;;;;;;;;;;;;;;;;5109733;28;19908;-71
2024/04/06 11:36:23;;;;;;;;;;;;;;;;;;5110022;28;19937;-71
2024/04/06 11:38:49;;;;;;;;;;;;;;;;;;5111357;28;20426;-73
2024/04/06 11:41:15;;;;;;;;;;;;;;;;;;5110908;28;19916;-73
2024/04/06 11:43:41;;;;;;;;;;;;;;;;;;5111316;28;19912;-72
2024/04/06 11:46:07;;;;;;;;;;;;;;;;;;5111353;28;19915;-71
2024/04/06 11:48:33;;;;;;;;;;;;;;;;;;5110450;28;19915;-72
2024/04/06 11:50:59;;;;;;;;;;;;;;;;;;5109503;28;19943;-72
2024/04/06 11:53:25;;;;;;;;;;;;;;;;;;5110302;28;19912;-72
2024/04/06 11:55:50;;;;;;;;;;;;;;;;;;5109408;28;19908;-72
2024/04/06 11:58:17;;;;;;;;;;;;;;;;;;5110726;28;19914;-72
2024/04/06 12:00:43;;;;;;;;;;;;;;;;;;5109026;28;19938;-72
2024/04/06 12:03:09;;;;;;;;;;;;;;;;;;5110970;28;20406;-73
2024/04/06 12:05:35;;;;;;;;;;;;;;;;;;5110852;28;20279;-72
2024/04/06 12:08:01;;;;;;;;;;;;;;;;;;5110385;28;20260;-71
2024/04/06 12:10:27;;;;;;;;;;;;;;;;;;5110747;28;19908;-71
2024/04/06 12:12:53;;;;;;;;;;;;;;;;;;5109427;28;19990;-71
2024/04/06 12:15:18;;;;;;;;;;;;;;;;;;5110310;28;19908;-71
2024/04/06 12:17:45;;;;;;;;;;;;;;;;;;5110558;28;20256;-72
2024/04/06 12:20:11;;;;;;;;;;;;;;;;;;5110307;28;19927;-71
2024/04/06 12:22:37;;;;;;;;;;;;;;;;;;5110171;28;19914;-71
2024/04/06 12:25:03;;;;;;;;;;;;;;;;;;5110513;28;19995;-71
2024/04/06 12:27:29;;;;;;;;;;;;;;;;;;5109099;28;20363;-72
2024/04/06 12:29:55;;;;;;;;;;;;;;;;;;5108702;28;19908;-72
2024/04/06 12:32:21;;;;;;;;;;;;;;;;;;5100844;28;19974;-74
2024/04/06 12:34:47;;;;;;;;;;;;;;;;;;5095467;28;20017;-72
2024/04/06 12:37:14;;;;;;;;;;;;;;;;;;5096356;28;19912;-72
2024/04/06 12:39:40;;;;;;;;;;;;;;;;;;5096559;28;20364;-72
2024/04/06 12:42:06;;;;;;;;;;;;;;;;;;5096934;28;19912;-72
2024/04/06 12:44:32;;;;;;;;;;;;;;;;;;5094798;28;19908;-73
2024/04/06 12:46:58;;;;;;;;;;;;;;;;;;5096570;28;19909;-71
2024/04/06 12:49:24;;;;;;;;;;;;;;;;;;5096443;28;19909;-71
2024/04/06 12:51:50;;;;;;;;;;;;;;;;;;5096081;28;20006;-71
2024/04/06 12:54:16;;;;;;;;;;;;;;;;;;5096529;28;19908;-71
2024/04/06 12:59:27;;;;;;;;;;;;;;;;;;5096091;28;19965;-72
2024/04/06 13:01:53;;;;;;;;;;;;;;;;;;5096245;28;20504;-72
2024/04/06 13:04:19;;;;;;;;;;;;;;;;;;5095807;28;19908;-72
2024/04/06 13:06:45;;;;;;;;;;;;;;;;;;5096232;28;20050;-72
2024/04/06 13:09:11;;;;;;;;;;;;;;;;;;5096096;28;19921;-72
2024/04/06 13:11:39;;;;;;;;;;;;;;;;;;5095794;28;19974;-72
2024/04/06 13:14:05;;;;;;;;;;;;;;;;;;5096564;28;19908;-72
2024/04/06 13:16:31;;;;;;;;;;;;;;;;;;5095916;28;19920;-72
2024/04/06 13:18:58;;;;;;;;;;;;;;;;;;5095872;28;19908;-72
2024/04/06 13:21:24;;;;;;;;;;;;;;;;;;5096478;28;20265;-72
2024/04/06 13:23:51;;;;;;;;;;;;;;;;;;5096259;28;19908;-72
2024/04/06 13:26:17;;;;;;;;;;;;;;;;;;5095328;28;19908;-73
2024/04/06 13:28:44;;;;;;;;;;;;;;;;;;5095791;28;20003;-73
2024/04/06 13:31:12;;;;;;;;;;;;;;;;;;5095671;28;19908;-73
2024/04/06 13:33:37;;;;;;;;;;;;;;;;;;5095218;28;19915;-73
2024/04/06 13:36:03;;;;;;;;;;;;;;;;;;5095628;28;19912;-73
2024/04/06 13:38:29;;;;;;;;;;;;;;;;;;5095552;28;19908;-72
2024/04/06 13:40:55;;;;;;;;;;;;;;;;;;5095003;28;20280;-72
2024/04/06 13:43:21;;;;;;;;;;;;;;;;;;5093029;28;19908;-72
2024/04/06 13:45:47;;;;;;;;;;;;;;;;;;5095378;28;20045;-71
2024/04/06 13:48:13;;;;;;;;;;;;;;;;;;5094907;28;19912;-71
2024/04/06 13:50:39;;;;;;;;;;;;;;;;;;5095296;28;19958;-71
2024/04/06 13:53:05;;;;;;;;;;;;;;;;;;5095167;28;19962;-71
2024/04/06 13:55:31;;;;;;;;;;;;;;;;;;5095222;28;19910;-71
2024/04/06 13:57:58;;;;;;;;;;;;;;;;;;5095127;28;19975;-71
2024/04/06 14:00:24;;;;;;;;;;;;;;;;;;5094557;28;20310;-71
2024/04/06 14:02:50;;;;;;;;;;;;;;;;;;5094997;28;19908;-72
2024/04/06 14:05:16;;;;;;;;;;;;;;;;;;5093758;28;19953;-71
2024/04/06 14:07:42;;;;;;;;;;;;;;;;;;5094632;28;19915;-71
2024/04/06 14:10:08;;;;;;;;;;;;;;;;;;5093661;28;19908;-72
2024/04/06 14:12:34;;;;;;;;;;;;;;;;;;5094898;28;20050;-72
2024/04/06 14:15:00;;;;;;;;;;;;;;;;;;5094401;28;19964;-71
2024/04/06 14:17:26;;;;;;;;;;;;;;;;;;5094728;28;19908;-71
2024/04/06 14:19:53;;;;;;;;;;;;;;;;;;5094468;28;19973;-72
2024/04/06 14:22:19;;;;;;;;;;;;;;;;;;5094369;28;19915;-72
2024/04/06 14:24:45;;;;;;;;;;;;;;;;;;5094725;28;19908;-72
2024/04/06 14:27:11;;;;;;;;;;;;;;;;;;5094528;28;19947;-72
2024/04/06 14:29:37;;;;;;;;;;;;;;;;;;5094221;28;19908;-72
2024/04/06 14:32:03;;;;;;;;;;;;;;;;;;5094439;28;19908;-72
2024/04/06 14:34:29;;;;;;;;;;;;;;;;;;5094492;28;20372;-71
2024/04/06 14:36:57;;;;;;;;;;;;;;;;;;5093924;28;19909;-72
2024/04/06 14:39:22;;;;;;;;;;;;;;;;;;5092957;28;19934;-72
2024/04/06 14:41:48;;;;;;;;;;;;;;;;;;5093031;28;20329;-72
2024/04/06 14:44:14;;;;;;;;;;;;;;;;;;5093889;28;19909;-72
2024/04/06 14:46:40;;;;;;;;;;;;;;;;;;5094233;28;19931;-72
2024/04/06 14:49:06;;;;;;;;;;;;;;;;;;5094198;28;19938;-72
2024/04/06 14:51:32;;;;;;;;;;;;;;;;;;5093843;28;20368;-71
2024/04/06 14:53:58;;;;;;;;;;;;;;;;;;5094371;28;20329;-72
2024/04/06 14:56:24;;;;;;;;;;;;;;;;;;5093520;28;19908;-72
2024/04/06 14:58:50;;;;;;;;;;;;;;;;;;5094036;28;19914;-72
2024/04/06 15:01:16;;;;;;;;;;;;;;;;;;5093917;28;19916;-72
2024/04/06 15:03:42;;;;;;;;;;;;;;;;;;5093529;28;19923;-72
2024/04/06 15:06:08;;;;;;;;;;;;;;;;;;5093953;28;20275;-72
2024/04/06 15:08:34;;;;;;;;;;;;;;;;;;5093915;28;19908;-72
2024/04/06 15:11:00;;;;;;;;;;;;;;;;;;5093501;28;19930;-72
2024/04/06 15:13:26;;;;;;;;;;;;;;;;;;5093893;28;19935;-72
2024/04/06 15:15:52;;;;;;;;;;;;;;;;;;5093824;28;19971;-72
2024/04/06 15:18:18;;;;;;;;;;;;;;;;;;5093362;28;19908;-72
2024/04/06 15:20:45;;;;;;;;;;;;;;;;;;5093525;28;20036;-72
2024/04/06 15:23:12;;;;;;;;;;;;;;;;;;5093665;28;20343;-72
2024/04/06 15:25:39;;;;;;;;;;;;;;;;;;5093329;28;19908;-72
2024/04/06 15:28:05;;;;;;;;;;;;;;;;;;5093692;28;19908;-72
2024/04/06 15:30:31;;;;;;;;;;;;;;;;;;5093724;28;19999;-72
2024/04/06 15:32:57;;;;;;;;;;;;;;;;;;5093503;28;19947;-72
2024/04/06 15:35:23;;;;;;;;;;;;;;;;;;5092453;28;20390;-72
2024/04/06 15:37:49;;;;;;;;;;;;;;;;;;5093604;28;20326;-72
2024/04/06 15:40:15;;;;;;;;;;;;;;;;;;5091949;28;19916;-72
2024/04/06 15:42:41;;;;;;;;;;;;;;;;;;5093591;28;19955;-72
2024/04/06 15:45:07;;;;;;;;;;;;;;;;;;5093778;28;20266;-72
2024/04/06 15:47:32;;;;;;;;;;;;;;;;;;5093173;28;19984;-72
2024/04/06 15:49:58;;;;;;;;;;;;;;;;;;5093469;28;19920;-71
2024/04/06 15:52:24;;;;;;;;;;;;;;;;;;5093634;28;19915;-71
2024/04/06 15:54:50;;;;;;;;;;;;;;;;;;5093063;28;20275;-71
2024/04/06 15:57:16;;;;;;;;;;;;;;;;;;5093476;28;20002;-71
2024/04/06 15:59:42;;;;;;;;;;;;;;;;;;5092981;28;19916;-72
2024/04/06 16:02:08;;;;;;;;;;;;;;;;;;5093441;28;19912;-72
2024/04/06 16:04:37;;;;;;;;;;;;;;;;;;5093362;28;20066;-72
2024/04/06 16:07:03;;;;;;;;;;;;;;;;;;5093177;28;19958;-72
2024/04/06 16:09:29;;;;;;;;;;;;;;;;;;5097195;28;19954;-73
2024/04/06 16:11:55;;;;;;;;;;;;;;;;;;5097191;28;20007;-72
2024/04/06 16:14:23;;;;;;;;;;;;;;;;;;5096952;28;19914;-72
2024/04/06 16:16:49;;;;;;;;;;;;;;;;;;5095669;28;19908;-72
2024/04/06 16:19:15;;;;;;;;;;;;;;;;;;5097014;28;19915;-72
2024/04/06 16:21:41;;;;;;;;;;;;;;;;;;5095121;28;20292;-72
2024/04/06 16:24:07;;;;;;;;;;;;;;;;;;5096880;28;20323;-72
2024/04/06 16:26:33;;;;;;;;;;;;;;;;;;5096839;28;19908;-73
2024/04/06 16:28:59;;;;;;;;;;;;;;;;;;5095110;28;19908;-72
2024/04/06 16:31:25;;;;;;;;;;;;;;;;;;5096737;28;19909;-73
2024/04/06 16:33:52;;;;;;;;;;;;;;;;;;5096722;28;19908;-72
2024/04/06 16:36:17;;;;;;;;;;;;;;;;;;5096309;28;19908;-72
2024/04/06 16:38:43;;;;;;;;;;;;;;;;;;5096658;28;19912;-72
2024/04/06 16:41:10;;;;;;;;;;;;;;;;;;5095273;28;19924;-72
2024/04/06 16:43:36;;;;;;;;;;;;;;;;;;5096181;28;20375;-72
2024/04/06 16:46:02;;;;;;;;;;;;;;;;;;5096560;28;19908;-72
2024/04/06 16:48:28;;;;;;;;;;;;;;;;;;5096912;28;19908;-72
2024/04/06 16:50:54;;;;;;;;;;;;;;;;;;5094843;28;19935;-72
2024/04/06 16:53:20;;;;;;;;;;;;;;;;;;5096426;28;19908;-72
2024/04/06 16:55:46;;;;;;;;;;;;;;;;;;5096270;28;19947;-72
2024/04/06 16:58:12;;;;;;;;;;;;;;;;;;5095843;28;19930;-72
2024/04/06 17:00:38;;;;;;;;;;;;;;;;;;5094942;28;20415;-72
2024/04/06 17:04:45;;;;;;;;;;;;;;;;;;5090985;27;19916;-73
2024/04/06 17:07:11;;;;;;;;;;;;;;;;;;5091270;28;20018;-73
2024/04/06 17:09:37;;;;;;;;;;;;;;;;;;5091098;28;19909;-72
2024/04/06 17:16:37;;;;;;;;;;;;;;;;;;5173906;27;20378;-72
2024/04/06 17:19:03;;;;;;;;;;;;;;;;;;5173395;27;19942;-72
2024/04/06 17:21:29;;;;;;;;;;;;;;;;;;5173642;27;19942;-73